Time;durP1;ratioP1;P1;durP2;ratioP2;P2;SDS_P1;SDS_P2;PMS_P1;PMS_P2;Temp;Humidity;BMP_temperature;BMP_pressure;BME280_temperature;BME280_humidity;BME280_pressure;Samples;Min_cycle;Max_cycle;Signal;HPM_P1;HPM_P2
2022/08/07 00:01:46;;;;;;;6.43;5.40;;;;;;;26.33;52.68;94415.22;5096400;28;20193;-83
2022/08/07 00:04:13;;;;;;;5.88;5.28;;;;;;;26.30;52.51;94415.75;5096921;28;20196;-86
2022/08/07 00:06:40;;;;;;;7.00;5.55;;;;;;;26.25;52.63;94408.59;5096557;28;20197;-88
2022/08/07 00:09:07;;;;;;;11.82;5.55;;;;;;;26.11;52.67;94388.19;5094050;28;20193;-85
2022/08/07 00:11:36;;;;;;;5.90;5.22;;;;;;;26.21;52.83;94410.13;5092026;28;20205;-86
2022/08/07 00:14:02;;;;;;;7.63;5.45;;;;;;;26.14;52.95;94395.59;5091255;28;20194;-87
2022/08/07 00:16:29;;;;;;;5.97;5.47;;;;;;;26.20;52.76;94413.75;5089867;28;20568;-86
2022/08/07 00:18:56;;;;;;;6.18;5.57;;;;;;;26.18;52.99;94415.06;5090092;28;20193;-85
2022/08/07 00:21:23;;;;;;;7.13;5.75;;;;;;;26.10;53.02;94413.63;5089620;28;20194;-86
2022/08/07 00:23:53;;;;;;;7.20;6.03;;;;;;;26.03;52.95;94403.28;5089459;28;20220;-87
2022/08/07 00:26:20;;;;;;;9.23;5.78;;;;;;;25.97;53.02;94390.38;5089691;28;20205;-89
2022/08/07 00:28:48;;;;;;;5.53;5.03;;;;;;;26.09;53.06;94419.13;5089831;28;20193;-86
2022/08/07 00:31:15;;;;;;;7.68;5.80;;;;;;;25.77;53.71;94375.16;5091345;28;20210;-87
2022/08/07 00:33:42;;;;;;;7.88;5.72;;;;;;;25.92;53.93;94411.28;5093383;28;20196;-86
2022/08/07 00:36:09;;;;;;;6.20;5.60;;;;;;;25.93;53.80;94418.09;5093552;28;20197;-87
2022/08/07 00:38:39;;;;;;;6.00;5.50;;;;;;;25.96;53.86;94428.91;5093380;28;20255;-86
2022/08/07 00:41:06;;;;;;;7.28;5.55;;;;;;;25.95;53.73;94432.56;5093369;28;20193;-88
2022/08/07 00:43:33;;;;;;;9.02;5.90;;;;;;;25.94;54.28;94422.28;5093230;28;20578;-84
2022/08/07 00:46:02;;;;;;;6.95;6.28;;;;;;;25.92;54.50;94433.03;5093587;28;20638;-86
2022/08/07 00:48:29;;;;;;;8.52;5.72;;;;;;;25.91;54.68;94425.41;5093130;28;20614;-85
2022/08/07 00:50:56;;;;;;;6.00;5.40;;;;;;;25.88;54.42;94418.81;5093336;28;20222;-88
2022/08/07 00:53:23;;;;;;;7.13;5.82;;;;;;;25.86;54.69;94418.25;5093117;28;20201;-88
2022/08/07 00:55:50;;;;;;;10.70;5.57;;;;;;;25.60;54.85;94382.19;5092982;28;20192;-87
2022/08/07 00:58:20;;;;;;;6.07;5.40;;;;;;;25.80;54.96;94423.66;5092726;28;20186;-83
2022/08/07 01:00:47;;;;;;;6.60;5.88;;;;;;;25.82;55.26;94432.06;5093160;28;20217;-86
2022/08/07 01:03:15;;;;;;;6.18;5.55;;;;;;;25.80;55.00;94429.69;5093064;28;20190;-87
2022/08/07 01:05:44;;;;;;;10.73;5.78;;;;;;;25.75;55.38;94422.53;5092458;28;20210;-87
2022/08/07 01:08:11;;;;;;;6.43;5.60;;;;;;;25.75;55.10;94427.75;5092360;28;20197;-86
2022/08/07 01:10:39;;;;;;;8.70;6.00;;;;;;;25.74;55.23;94423.56;5092370;28;20185;-83
2022/08/07 01:13:06;;;;;;;6.30;5.47;;;;;;;25.72;55.25;94420.38;5092568;28;20341;-87
2022/08/07 01:15:34;;;;;;;8.38;5.28;;;;;;;25.64;55.93;94419.97;5092140;28;20225;-84
2022/08/07 01:18:01;;;;;;;6.70;5.63;;;;;;;25.68;55.19;94423.69;5092064;28;20249;-83
2022/08/07 01:20:36;;;;;;;12.65;5.57;;;;;;;25.65;55.43;94421.59;5092762;28;20251;-80
2022/08/07 01:23:05;;;;;;;10.00;5.35;;;;;;;25.62;55.51;94430.69;5092068;28;20552;-87
2022/08/07 01:25:32;;;;;;;9.18;5.60;;;;;;;25.63;55.51;94434.09;5092422;28;20209;-84
2022/08/07 01:28:00;;;;;;;11.07;5.53;;;;;;;25.60;55.35;94431.94;5092443;28;20200;-84
2022/08/07 01:30:27;;;;;;;4.82;4.20;;;;;;;25.58;55.29;94434.81;5095431;28;20194;-82
2022/08/07 01:32:54;;;;;;;5.80;5.20;;;;;;;25.59;55.18;94433.78;5095703;28;20248;-85
2022/08/07 01:35:21;;;;;;;4.90;4.50;;;;;;;25.53;55.07;94424.25;5094869;28;20204;-86
2022/08/07 01:37:48;;;;;;;5.95;4.65;;;;;;;25.36;55.16;94399.88;5092401;28;20220;-82
2022/08/07 01:40:20;;;;;;;6.60;5.30;;;;;;;25.52;55.48;94433.94;5092837;28;20545;-85
2022/08/07 01:42:48;;;;;;;6.22;4.90;;;;;;;25.50;55.66;94435.19;5091332;28;20189;-84
2022/08/07 01:45:15;;;;;;;5.03;4.53;;;;;;;25.49;55.61;94437.03;5095147;28;20217;-88
2022/08/07 01:47:43;;;;;;;6.22;5.10;;;;;;;25.47;55.45;94444.31;5093292;28;20189;-87
2022/08/07 01:50:10;;;;;;;5.55;4.95;;;;;;;25.46;55.40;94452.41;5092186;28;20178;-85
2022/08/07 01:52:40;;;;;;;5.35;4.93;;;;;;;25.22;55.77;94430.81;5092922;28;20257;-86
2022/08/07 01:55:11;;;;;;;6.10;5.50;;;;;;;25.30;55.76;94456.59;5092318;28;20205;-84
2022/08/07 01:57:42;;;;;;;5.38;4.65;;;;;;;25.41;55.62;94486.38;5093728;28;20614;-81
2022/08/07 02:00:12;;;;;;;7.82;5.18;;;;;;;25.41;55.74;94500.25;5094202;28;20196;-85
2022/08/07 02:02:44;;;;;;;5.43;4.88;;;;;;;25.30;55.61;94505.53;5093363;28;20661;-85
2022/08/07 02:05:17;;;;;;;6.63;5.32;;;;;;;25.48;55.45;94542.81;5092779;28;20197;-87
2022/08/07 02:07:49;;;;;;;5.85;5.35;;;;;;;25.50;55.21;94537.34;5092006;28;20243;-86
2022/08/07 02:10:18;;;;;;;7.95;5.80;;;;;;;25.40;55.95;94537.94;5092075;28;20216;-87
2022/08/07 02:12:49;;;;;;;9.30;5.30;;;;;;;25.45;55.61;94538.03;5091059;28;20214;-86
2022/08/07 02:15:20;;;;;;;6.85;6.10;;;;;;;25.44;55.66;94540.91;5090709;28;20221;-86
2022/08/07 02:17:49;;;;;;;9.90;6.57;;;;;;;25.46;57.38;94549.31;5091048;28;20552;-84
2022/08/07 02:20:18;;;;;;;8.30;6.30;;;;;;;25.31;59.53;94520.22;5091638;28;20182;-85
2022/08/07 02:22:46;;;;;;;6.85;6.20;;;;;;;25.40;59.22;94540.56;5091366;28;20284;-87
2022/08/07 02:25:15;;;;;;;7.28;6.57;;;;;;;25.41;59.55;94544.75;5091046;28;20194;-86
2022/08/07 02:27:44;;;;;;;10.07;6.53;;;;;;;25.39;61.04;94546.00;5091222;28;20189;-86
2022/08/07 02:30:13;;;;;;;7.00;6.35;;;;;;;25.39;62.19;94531.13;5090851;28;20189;-86
2022/08/07 02:32:41;;;;;;;6.28;5.78;;;;;;;25.25;61.37;94488.69;5090601;28;20225;-86
2022/08/07 02:35:10;;;;;;;7.07;6.00;;;;;;;25.50;60.56;94500.66;5090647;28;20672;-87
2022/08/07 02:37:40;;;;;;;7.60;6.65;;;;;;;25.52;60.05;94481.09;5090763;28;20186;-85
2022/08/07 02:40:10;;;;;;;7.82;6.18;;;;;;;25.53;59.89;94463.53;5090497;28;20194;-85
2022/08/07 02:42:37;;;;;;;9.02;6.65;;;;;;;25.55;60.16;94464.09;5090667;28;20190;-86
2022/08/07 02:45:08;;;;;;;6.35;5.75;;;;;;;25.37;59.87;94432.88;5090772;28;20196;-83
2022/08/07 02:47:36;;;;;;;7.97;5.95;;;;;;;25.55;60.17;94468.53;5090632;28;20193;-82
2022/08/07 02:50:05;;;;;;;5.93;5.32;;;;;;;25.60;59.98;94460.75;5090397;28;20178;-85
2022/08/07 02:52:37;;;;;;;6.32;5.03;;;;;;;25.49;59.97;94436.25;5090791;28;20222;-83
2022/08/07 02:55:10;;;;;;;9.00;5.53;;;;;;;25.62;60.41;94459.50;5072795;28;20198;-87
2022/08/07 02:57:38;;;;;;;5.47;5.05;;;;;;;25.44;60.78;94442.19;5090029;28;20582;-84
2022/08/07 03:00:07;;;;;;;5.40;4.90;;;;;;;25.47;61.58;94446.94;5090494;28;20204;-85
2022/08/07 03:02:40;;;;;;;6.28;5.70;;;;;;;25.56;62.32;94463.09;5090197;28;20225;-85
2022/08/07 03:05:10;;;;;;;6.25;5.05;;;;;;;25.57;61.64;94458.63;5090211;28;20193;-83
2022/08/07 03:07:38;;;;;;;4.82;4.38;;;;;;;25.30;61.53;94396.38;5089825;28;20186;-83
2022/08/07 03:10:05;;;;;;;6.20;5.20;;;;;;;25.56;63.80;94430.84;5089873;28;20201;-82
2022/08/07 03:12:33;;;;;;;5.63;5.13;;;;;;;25.55;63.51;94430.03;5089660;28;20212;-85
2022/08/07 03:15:01;;;;;;;5.28;4.78;;;;;;;25.55;63.44;94424.00;5089657;28;20688;-81
2022/08/07 03:17:29;;;;;;;5.72;5.22;;;;;;;25.54;65.00;94431.09;5089535;28;20306;-82
2022/08/07 03:20:00;;;;;;;7.28;5.63;;;;;;;25.29;66.25;94397.41;5089991;28;20273;-85
2022/08/07 03:22:29;;;;;;;6.18;5.57;;;;;;;25.51;66.71;94431.53;5089840;28;20189;-83
2022/08/07 03:24:56;;;;;;;6.22;5.63;;;;;;;25.51;66.84;94440.19;5090419;28;20197;-82
2022/08/07 03:27:23;;;;;;;6.63;6.03;;;;;;;25.50;67.66;94448.28;5089988;28;20194;-84
2022/08/07 03:29:52;;;;;;;7.20;5.35;;;;;;;25.50;67.58;94451.72;5089684;28;20182;-85
2022/08/07 03:32:28;;;;;;;6.53;5.55;;;;;;;25.53;66.51;94448.63;5089619;28;20247;-82
2022/08/07 03:35:00;;;;;;;9.10;7.05;;;;;;;25.61;66.33;94449.28;5089801;28;20193;-82
2022/08/07 03:37:29;;;;;;;8.43;6.40;;;;;;;25.55;65.91;94445.75;5089622;28;20224;-85
2022/08/07 03:39:57;;;;;;;6.25;5.60;;;;;;;25.59;65.52;94448.69;5089770;28;20660;-85
2022/08/07 03:42:24;;;;;;;8.70;6.05;;;;;;;25.58;65.21;94447.91;5089445;28;20194;-82
2022/08/07 03:44:52;;;;;;;7.15;6.55;;;;;;;25.53;65.34;94448.63;5089434;28;20197;-87
2022/08/07 03:47:20;;;;;;;8.68;7.70;;;;;;;25.51;65.63;94455.91;5089314;28;20692;-82
2022/08/07 03:49:47;;;;;;;8.00;7.07;;;;;;;25.19;66.21;94413.75;5089468;28;20281;-85
2022/08/07 03:52:19;;;;;;;9.43;7.43;;;;;;;25.45;66.95;94456.88;5089756;28;20545;-82
2022/08/07 03:54:46;;;;;;;8.48;7.60;;;;;;;25.28;67.07;94448.97;5089183;28;20291;-85
2022/08/07 03:57:14;;;;;;;11.93;7.47;;;;;;;25.46;67.07;94487.25;5089333;28;20190;-86
2022/08/07 03:59:41;;;;;;;8.25;7.45;;;;;;;25.39;67.94;94484.00;5089877;28;20197;-83
2022/08/07 04:02:08;;;;;;;8.38;7.22;;;;;;;25.40;68.40;94490.81;5089308;28;20251;-81
2022/08/07 04:04:36;;;;;;;8.23;7.38;;;;;;;25.39;68.46;94488.41;5089153;28;20205;-84
2022/08/07 04:07:03;;;;;;;8.50;6.95;;;;;;;25.38;68.34;94485.00;5092011;28;20186;-82
2022/08/07 04:09:32;;;;;;;10.27;7.85;;;;;;;25.33;68.74;94487.53;5096710;28;20640;-85
2022/08/07 04:11:59;;;;;;;7.03;6.32;;;;;;;25.33;68.99;94484.91;5099913;28;20327;-82
2022/08/07 04:14:27;;;;;;;8.13;6.95;;;;;;;25.32;68.85;94474.69;5102739;28;20225;-83
2022/08/07 04:16:55;;;;;;;7.45;6.82;;;;;;;25.27;68.89;94480.63;5095958;28;20192;-86
2022/08/07 04:19:24;;;;;;;8.43;7.10;;;;;;;25.26;68.97;94481.66;5093569;28;20200;-86
2022/08/07 04:21:51;;;;;;;7.88;7.13;;;;;;;25.27;69.31;94485.88;5093637;28;20194;-85
2022/08/07 04:24:19;;;;;;;7.65;6.90;;;;;;;25.26;69.16;94482.47;5092858;28;20193;-83
2022/08/07 04:26:47;;;;;;;8.88;6.57;;;;;;;25.28;69.02;94490.84;5093179;28;20189;-84
2022/08/07 04:29:14;;;;;;;7.70;6.90;;;;;;;25.26;68.91;94495.53;5093208;28;20182;-84
2022/08/07 04:31:41;;;;;;;7.47;6.78;;;;;;;25.30;68.82;94500.28;5093324;28;20189;-84
2022/08/07 04:34:10;;;;;;;7.68;6.75;;;;;;;25.30;69.41;94495.84;5092705;28;20693;-85
2022/08/07 04:36:37;;;;;;;6.93;6.13;;;;;;;25.30;69.28;94490.63;5093220;28;20591;-86
2022/08/07 04:39:05;;;;;;;14.18;6.82;;;;;;;25.33;69.19;94502.44;5092732;28;20193;-85
2022/08/07 04:41:32;;;;;;;7.47;6.63;;;;;;;25.09;68.34;94471.16;5093131;28;20181;-84
2022/08/07 04:44:02;;;;;;;8.80;7.70;;;;;;;25.35;68.16;94514.28;5092487;28;20350;-86
2022/08/07 04:46:36;;;;;;;8.15;6.60;;;;;;;25.33;68.22;94513.72;5093089;28;20197;-85
2022/08/07 04:49:11;;;;;;;7.53;6.38;;;;;;;25.27;68.69;94499.75;5092538;28;20189;-81
2022/08/07 04:51:49;;;;;;;6.75;5.95;;;;;;;25.34;68.50;94504.03;5092855;28;20509;-85
2022/08/07 04:54:22;;;;;;;8.10;6.82;;;;;;;25.36;68.72;94510.63;5092911;28;20225;-85
2022/08/07 04:56:55;;;;;;;8.70;6.50;;;;;;;25.37;69.34;94519.28;5093172;28;20185;-84
2022/08/07 04:59:30;;;;;;;7.95;6.50;;;;;;;25.37;69.03;94519.28;5092566;28;20193;-87
2022/08/07 05:02:05;;;;;;;7.15;6.50;;;;;;;25.28;69.35;94495.31;5092993;28;20193;-92
2022/08/07 05:04:40;;;;;;;7.65;6.82;;;;;;;25.29;68.88;94499.50;5092810;28;20185;-85
2022/08/07 05:07:13;;;;;;;7.25;6.35;;;;;;;25.46;68.81;94523.91;5093129;28;20216;-90
2022/08/07 05:09:46;;;;;;;7.25;6.65;;;;;;;25.49;68.43;94518.22;5094038;28;20189;-84
2022/08/07 05:12:19;;;;;;;6.97;6.38;;;;;;;25.61;68.34;94538.31;5090219;28;20265;-90
2022/08/07 05:14:51;;;;;;;8.18;6.75;;;;;;;25.64;67.45;94529.97;5072008;28;20226;-85
2022/08/07 05:17:21;;;;;;;6.82;5.38;;;;;;;25.68;67.19;94539.75;5072476;28;20198;-87
2022/08/07 05:19:51;;;;;;;6.47;5.93;;;;;;;25.32;66.99;94477.31;5073097;28;20194;-86
2022/08/07 05:22:21;;;;;;;7.00;6.32;;;;;;;25.42;66.63;94485.34;5072036;28;20650;-84
2022/08/07 05:24:51;;;;;;;7.65;6.22;;;;;;;25.88;66.83;94533.31;5072345;28;20657;-86
2022/08/07 05:27:20;;;;;;;6.72;6.10;;;;;;;25.80;66.79;94521.38;5072311;28;20255;-83
2022/08/07 05:29:51;;;;;;;6.65;6.05;;;;;;;25.92;66.49;94527.34;5071987;28;20187;-86
2022/08/07 05:32:23;;;;;;;9.80;6.05;;;;;;;26.08;66.75;94525.78;5072137;28;20650;-85
2022/08/07 05:34:51;;;;;;;6.28;5.72;;;;;;;26.26;66.80;94536.03;5072333;28;20256;-86
2022/08/07 05:37:19;;;;;;;6.97;6.28;;;;;;;26.44;66.39;94531.59;5071839;28;20193;-86
2022/08/07 05:39:46;;;;;;;6.53;5.93;;;;;;;26.62;65.53;94531.31;5072056;28;20186;-85
2022/08/07 05:42:14;;;;;;;10.40;6.30;;;;;;;26.80;65.35;94545.22;5072540;28;20197;-83
2022/08/07 05:44:42;;;;;;;6.35;5.75;;;;;;;27.01;63.48;94547.84;5072245;28;20190;-84
2022/08/07 05:47:11;;;;;;;7.78;5.97;;;;;;;27.17;62.96;94546.25;5071886;28;20577;-86
2022/08/07 05:49:39;;;;;;;5.97;5.40;;;;;;;27.23;61.82;94529.50;5071582;28;20197;-86
2022/08/07 05:52:07;;;;;;;6.28;5.78;;;;;;;27.51;62.24;94562.66;5071607;28;20190;-85
2022/08/07 05:54:34;;;;;;;6.75;6.15;;;;;;;27.72;58.73;94565.47;5071095;28;20218;-86
2022/08/07 05:57:02;;;;;;;7.50;5.80;;;;;;;27.70;59.67;94549.97;5071712;28;20229;-85
2022/08/07 05:59:32;;;;;;;6.65;6.05;;;;;;;27.95;59.85;94569.69;5072078;28;20195;-87
2022/08/07 06:01:59;;;;;;;6.72;5.93;;;;;;;27.54;58.81;94524.56;5073108;28;20196;-85
2022/08/07 06:04:28;;;;;;;6.22;5.70;;;;;;;27.71;58.67;94519.22;5070946;28;20292;-83
2022/08/07 06:06:55;;;;;;;5.88;5.32;;;;;;;28.26;57.62;94581.25;5073573;28;20228;-86
2022/08/07 06:09:22;;;;;;;6.05;5.55;;;;;;;28.20;57.78;94580.44;5071954;28;20190;-82
2022/08/07 06:11:49;;;;;;;6.47;5.95;;;;;;;28.32;57.55;94588.13;5071103;28;20609;-84
2022/08/07 06:14:17;;;;;;;6.78;5.65;;;;;;;28.47;56.55;94583.03;5070952;28;20233;-84
2022/08/07 06:16:47;;;;;;;6.05;5.47;;;;;;;28.61;56.42;94572.06;5070773;28;20187;-83
2022/08/07 06:19:14;;;;;;;6.28;5.68;;;;;;;28.75;55.79;94576.63;5070628;28;20194;-83
2022/08/07 06:21:44;;;;;;;6.32;5.72;;;;;;;28.83;54.49;94579.84;5071341;28;20198;-85
2022/08/07 06:24:11;;;;;;;6.53;5.47;;;;;;;28.99;54.39;94581.56;5070577;28;20197;-84
2022/08/07 06:26:41;;;;;;;6.90;6.20;;;;;;;28.95;53.54;94547.00;5071103;28;20194;-87
2022/08/07 06:29:08;;;;;;;5.97;5.43;;;;;;;29.25;53.24;94577.19;5070774;28;20226;-84
2022/08/07 06:31:35;;;;;;;6.25;5.57;;;;;;;29.37;52.79;94583.06;5070551;28;20232;-85
2022/08/07 06:34:02;;;;;;;6.43;5.80;;;;;;;29.19;51.67;94544.00;5071037;28;20225;-84
2022/08/07 06:36:29;;;;;;;5.85;4.75;;;;;;;29.57;51.64;94574.44;5071289;28;20189;-85
2022/08/07 06:38:58;;;;;;;6.13;5.53;;;;;;;29.53;50.60;94536.44;5071116;28;20281;-86
2022/08/07 06:41:30;;;;;;;6.03;5.25;;;;;;;29.89;50.51;94579.53;5071246;28;20187;-84
2022/08/07 06:44:00;;;;;;;7.18;6.57;;;;;;;30.03;49.36;94579.81;5070296;28;20194;-86
2022/08/07 06:46:27;;;;;;;6.10;5.50;;;;;;;30.14;49.78;94576.19;5070330;28;20190;-84
2022/08/07 06:48:54;;;;;;;7.00;6.32;;;;;;;30.16;49.24;94571.41;5070772;28;20189;-85
2022/08/07 06:51:26;;;;;;;6.63;6.05;;;;;;;30.07;49.59;94546.59;5071015;28;20212;-84
2022/08/07 06:53:55;;;;;;;6.53;5.90;;;;;;;30.15;49.64;94569.84;5071669;28;20309;-85
2022/08/07 06:59:22;;;;;;;6.88;6.22;;;;;;;30.36;49.25;94568.00;5150071;27;20931;-86
2022/08/07 07:01:50;;;;;;;6.70;5.78;;;;;;;30.59;48.47;94571.94;5149524;27;20196;-83
2022/08/07 07:04:18;;;;;;;7.35;6.63;;;;;;;30.66;48.56;94575.09;5149468;27;20184;-85
2022/08/07 07:06:45;;;;;;;6.63;6.03;;;;;;;30.70;48.33;94580.63;5149382;27;20264;-86
2022/08/07 07:09:19;;;;;;;6.50;5.55;;;;;;;30.59;47.72;94571.16;5149308;27;20195;-85
2022/08/07 07:12:11;;;;;;;10.40;6.65;;;;;;;30.82;47.16;94578.53;5149509;27;20658;-85
2022/08/07 07:14:51;;;;;;;7.07;6.30;;;;;;;30.92;47.24;94572.44;5149396;27;20195;-85
2022/08/07 07:17:24;;;;;;;6.95;5.90;;;;;;;31.11;47.18;94591.16;5149090;27;20614;-86
2022/08/07 07:19:55;;;;;;;6.75;5.75;;;;;;;30.88;46.71;94555.56;5148869;27;20180;-85
2022/08/07 07:22:24;;;;;;;6.88;6.25;;;;;;;31.25;45.89;94586.88;5148949;27;20540;-85
2022/08/07 07:24:52;;;;;;;7.28;6.07;;;;;;;31.42;46.19;94583.94;5148770;27;20655;-85
2022/08/07 07:27:23;;;;;;;8.45;6.25;;;;;;;31.53;45.93;94584.69;5149244;27;20192;-86
2022/08/07 07:29:57;;;;;;;6.70;6.10;;;;;;;31.48;44.88;94588.16;5148778;27;20200;-86
2022/08/07 07:32:24;;;;;;;9.07;5.93;;;;;;;31.61;44.68;94587.56;5149143;27;20354;-84
2022/08/07 07:34:55;;;;;;;6.63;6.03;;;;;;;31.59;44.81;94557.94;5151577;27;20196;-85
2022/08/07 07:37:24;;;;;;;7.05;6.45;;;;;;;31.71;43.55;94589.34;5154029;27;20207;-86
2022/08/07 07:39:54;;;;;;;8.27;5.72;;;;;;;31.61;43.76;94584.91;5152369;27;20196;-84
2022/08/07 07:42:23;;;;;;;10.85;7.15;;;;;;;31.38;44.12;94585.53;5150015;27;20188;-85
2022/08/07 07:44:54;;;;;;;7.72;6.90;;;;;;;31.55;44.03;94591.25;5151462;27;20694;-84
2022/08/07 07:47:24;;;;;;;9.27;5.70;;;;;;;31.22;43.71;94538.00;5149603;27;20180;-85
2022/08/07 07:49:54;;;;;;;7.57;6.20;;;;;;;31.68;42.65;94595.16;5149007;27;20180;-86
2022/08/07 07:52:22;;;;;;;7.82;7.00;;;;;;;31.49;43.21;94592.38;5148838;27;20643;-82
2022/08/07 07:54:51;;;;;;;7.50;6.80;;;;;;;31.42;42.88;94576.78;5150985;27;20191;-88
2022/08/07 07:57:21;;;;;;;7.13;6.53;;;;;;;31.29;42.79;94572.06;5149458;27;20230;-84
2022/08/07 07:59:51;;;;;;;10.23;8.60;;;;;;;31.45;42.56;94592.09;5148679;27;20195;-85
2022/08/07 08:02:20;;;;;;;8.65;7.85;;;;;;;31.52;42.66;94591.84;5148190;27;20559;-86
2022/08/07 08:04:48;;;;;;;9.77;8.52;;;;;;;31.40;42.97;94601.91;5147831;27;20236;-87
2022/08/07 08:07:16;;;;;;;12.57;9.68;;;;;;;30.97;42.60;94560.00;5148527;27;20222;-86
2022/08/07 08:09:44;;;;;;;13.05;9.73;;;;;;;31.21;43.72;94599.03;5139407;27;20203;-84
2022/08/07 08:12:11;;;;;;;12.38;11.25;;;;;;;31.05;43.83;94587.72;5134418;27;20257;-85
2022/08/07 08:14:38;;;;;;;11.50;10.32;;;;;;;31.36;43.71;94599.03;5133836;27;20198;-84
2022/08/07 08:17:10;;;;;;;12.63;11.43;;;;;;;31.43;43.92;94611.94;5134004;27;20191;-85
2022/08/07 08:19:43;;;;;;;11.35;10.35;;;;;;;31.52;43.69;94607.69;5135326;27;20245;-85
2022/08/07 08:27:43;;;;;;;11.35;9.63;;;;;;;31.13;44.83;94608.31;5134697;27;20195;-84
2022/08/07 08:30:13;;;;;;;8.57;7.53;;;;;;;31.24;44.28;94601.16;5134374;27;20196;-85
2022/08/07 08:32:49;;;;;;;8.52;7.72;;;;;;;31.43;43.53;94594.25;5135076;27;20188;-88
2022/08/07 08:35:21;;;;;;;9.70;7.97;;;;;;;31.51;43.94;94605.31;5133754;27;20204;-85
2022/08/07 08:37:50;;;;;;;9.50;7.50;;;;;;;31.60;43.46;94601.81;5134204;27;20220;-85
2022/08/07 08:40:27;;;;;;;7.18;6.57;;;;;;;31.70;43.05;94608.94;5134153;27;20200;-85
2022/08/07 08:42:59;;;;;;;7.53;6.82;;;;;;;31.50;42.95;94562.22;5134302;27;20184;-86
2022/08/07 08:45:37;;;;;;;7.65;6.95;;;;;;;31.68;43.07;94605.75;5134184;27;20184;-85
2022/08/07 08:48:14;;;;;;;7.93;7.20;;;;;;;31.72;42.35;94591.72;5132995;27;20272;-87
2022/08/07 08:50:47;;;;;;;7.72;6.97;;;;;;;31.78;42.87;94595.13;5133714;27;20211;-85
2022/08/07 08:53:25;;;;;;;7.25;6.53;;;;;;;31.83;42.52;94618.94;5134526;27;20558;-86
2022/08/07 08:55:56;;;;;;;11.43;7.07;;;;;;;31.85;42.38;94603.56;5134138;27;20196;-86
2022/08/07 08:58:35;;;;;;;7.72;6.03;;;;;;;31.95;42.25;94611.47;5134806;27;20243;-86
2022/08/07 09:01:10;;;;;;;6.88;6.28;;;;;;;31.97;42.38;94616.47;5133302;27;20557;-86
2022/08/07 09:03:49;;;;;;;6.60;6.00;;;;;;;31.85;42.00;94600.13;5133172;27;20188;-84
2022/08/07 09:06:29;;;;;;;7.78;6.18;;;;;;;31.75;43.04;94608.91;5133742;27;20248;-84
2022/08/07 09:09:03;;;;;;;6.93;6.30;;;;;;;31.81;42.29;94599.88;5133444;27;20184;-85
2022/08/07 09:11:39;;;;;;;7.43;6.18;;;;;;;31.86;42.18;94594.56;5133274;27;20188;-86
2022/08/07 09:14:13;;;;;;;8.48;6.10;;;;;;;31.87;42.34;94612.03;5133411;27;20195;-87
2022/08/07 09:16:50;;;;;;;7.50;6.80;;;;;;;31.48;42.81;94562.50;5133239;27;20280;-85
2022/08/07 09:19:24;;;;;;;7.45;6.70;;;;;;;31.84;42.78;94604.66;5133227;27;20208;-86
2022/08/07 09:22:06;;;;;;;6.97;6.28;;;;;;;31.79;42.97;94590.63;5132229;27;20194;-85
2022/08/07 09:24:45;;;;;;;7.57;6.72;;;;;;;31.75;42.74;94594.88;5133618;27;20211;-84
2022/08/07 09:27:24;;;;;;;6.70;5.82;;;;;;;31.44;42.56;94555.38;5132654;27;20751;-87
2022/08/07 09:30:00;;;;;;;7.30;6.68;;;;;;;31.65;42.82;94593.06;5132738;27;20188;-86
2022/08/07 09:32:50;;;;;;;7.70;6.78;;;;;;;31.57;42.88;94583.09;5132576;27;20180;-86
2022/08/07 09:35:34;;;;;;;6.85;6.20;;;;;;;31.36;42.89;94572.59;5131969;27;20196;-85
2022/08/07 09:38:19;;;;;;;11.00;6.45;;;;;;;31.50;42.47;94564.06;5132109;27;20230;-84
2022/08/07 09:41:06;;;;;;;7.43;6.72;;;;;;;31.29;42.78;94558.06;5132459;27;20191;-84
2022/08/07 09:43:55;;;;;;;6.30;5.70;;;;;;;31.32;42.67;94570.75;5131966;27;20199;-85
2022/08/07 09:46:36;;;;;;;6.68;6.07;;;;;;;31.41;42.93;94574.41;5132591;27;20184;-85
2022/08/07 09:49:18;;;;;;;6.95;6.35;;;;;;;31.37;42.89;94570.75;5131728;27;20223;-85
2022/08/07 09:52:00;;;;;;;6.18;5.68;;;;;;;31.44;41.78;94574.69;5131873;27;20185;-87
2022/08/07 09:54:41;;;;;;;6.10;5.53;;;;;;;31.42;41.89;94565.41;5132172;27;20296;-87
2022/08/07 09:57:32;;;;;;;5.75;5.25;;;;;;;31.47;42.41;94568.03;5132395;27;20199;-87
2022/08/07 10:00:07;;;;;;;6.25;5.65;;;;;;;31.52;42.67;94573.31;5048010;28;20215;-86
2022/08/07 10:02:58;;;;;;;6.30;5.50;;;;;;;31.41;42.42;94563.84;5049609;28;20221;-85
2022/08/07 10:05:35;;;;;;;6.30;5.70;;;;;;;31.29;42.52;94558.88;5048708;28;20675;-85
2022/08/07 10:08:35;;;;;;;7.10;5.38;;;;;;;31.28;42.35;94554.66;5047906;28;20273;-85
2022/08/07 10:11:11;;;;;;;6.38;5.78;;;;;;;31.16;41.65;94560.22;5048197;28;20844;-84
2022/08/07 10:13:50;;;;;;;6.25;5.65;;;;;;;30.92;41.73;94541.53;5047907;28;20657;-85
2022/08/07 10:16:42;;;;;;;7.43;5.57;;;;;;;30.97;42.05;94546.81;5047937;28;20712;-84
2022/08/07 10:19:41;;;;;;;6.75;5.85;;;;;;;30.98;41.70;94555.50;5048006;28;20281;-85
2022/08/07 10:22:28;;;;;;;7.15;5.38;;;;;;;30.94;41.24;94544.69;5042510;28;20281;-83
2022/08/07 10:25:10;;;;;;;6.22;5.63;;;;;;;30.75;42.02;94548.19;5047355;28;20195;-84
2022/08/07 10:27:59;;;;;;;7.72;6.10;;;;;;;30.64;42.82;94552.66;5047438;28;20206;-85
2022/08/07 10:30:34;;;;;;;6.75;6.15;;;;;;;30.54;42.96;94521.78;5027189;28;20190;-82
2022/08/07 10:33:22;;;;;;;6.55;5.95;;;;;;;30.66;42.96;94545.28;5048488;28;20198;-85
2022/08/07 10:36:00;;;;;;;6.18;5.68;;;;;;;30.73;42.73;94551.88;5048226;28;20605;-84
2022/08/07 10:38:42;;;;;;;7.82;6.43;;;;;;;30.66;42.53;94559.25;5130995;27;20694;-86
2022/08/07 10:41:15;;;;;;;8.07;6.97;;;;;;;30.17;43.84;94533.41;5131680;27;20559;-85
2022/08/07 10:43:48;;;;;;;6.80;6.18;;;;;;;30.16;44.02;94533.69;5132224;27;20700;-85
2022/08/07 10:46:19;;;;;;;6.88;6.28;;;;;;;30.21;44.65;94549.53;5131445;27;20264;-86
2022/08/07 10:48:57;;;;;;;7.65;5.90;;;;;;;30.37;44.08;94545.03;5136133;27;20202;-86
2022/08/07 10:51:32;;;;;;;7.30;6.70;;;;;;;29.99;44.64;94489.88;5144249;27;20209;-86
2022/08/07 10:54:11;;;;;;;8.23;7.38;;;;;;;30.15;44.13;94506.53;5132847;27;20184;-85
2022/08/07 10:56:50;;;;;;;10.32;6.47;;;;;;;30.02;44.46;94501.75;5133659;28;20191;-83
2022/08/07 10:59:26;;;;;;;7.57;5.78;;;;;;;30.22;44.42;94541.34;5132163;28;20231;-85
2022/08/07 11:01:59;;;;;;;6.95;6.35;;;;;;;30.16;45.01;94544.25;5134675;28;20191;-85
2022/08/07 11:04:40;;;;;;;7.35;6.60;;;;;;;30.34;44.56;94550.84;5134603;28;20180;-84
2022/08/07 11:07:19;;;;;;;8.52;7.18;;;;;;;30.37;44.57;94545.03;5134500;28;20196;-85
2022/08/07 11:09:54;;;;;;;7.07;6.45;;;;;;;30.20;45.07;94532.91;5134444;28;20671;-84
2022/08/07 11:12:31;;;;;;;7.53;6.75;;;;;;;30.29;44.32;94546.34;5134176;28;20209;-85
2022/08/07 11:15:02;;;;;;;7.53;6.68;;;;;;;30.15;44.75;94550.59;5134547;28;20639;-83
2022/08/07 11:17:39;;;;;;;11.32;7.72;;;;;;;30.00;44.96;94538.91;5133523;28;20198;-85
2022/08/07 11:20:14;;;;;;;8.25;6.55;;;;;;;30.06;45.42;94536.31;5139150;28;20235;-85
2022/08/07 11:22:59;;;;;;;10.63;7.13;;;;;;;30.26;44.96;94540.81;5134790;28;20184;-85
2022/08/07 11:25:33;;;;;;;7.47;6.70;;;;;;;30.26;45.51;94527.63;5134611;28;20203;-83
2022/08/07 11:28:10;;;;;;;6.53;5.95;;;;;;;30.38;45.02;94528.94;5135841;28;20210;-85
2022/08/07 11:30:50;;;;;;;6.57;6.00;;;;;;;30.36;45.04;94528.41;5133871;28;20196;-85
2022/08/07 11:33:24;;;;;;;6.97;6.38;;;;;;;30.10;44.63;94537.38;5133315;28;20188;-84
2022/08/07 11:36:05;;;;;;;6.47;5.97;;;;;;;30.23;44.03;94542.16;5132153;28;20184;-87
2022/08/07 11:38:40;;;;;;;6.15;5.55;;;;;;;30.13;43.60;94539.47;5138708;28;20204;-84
2022/08/07 11:41:14;;;;;;;6.82;6.22;;;;;;;29.98;45.50;94553.44;5139373;28;20260;-84
2022/08/07 11:43:56;;;;;;;7.20;6.50;;;;;;;29.89;45.74;94532.06;5138675;27;20188;-83
2022/08/07 11:46:43;;;;;;;9.85;6.43;;;;;;;29.74;46.70;94537.31;5146817;27;20266;-85
2022/08/07 11:49:51;;;;;;;6.85;6.28;;;;;;;29.73;47.35;94556.81;5144344;27;20200;-83
2022/08/07 11:52:35;;;;;;;7.35;6.65;;;;;;;29.67;46.85;94540.22;5086979;28;20194;-84
2022/08/07 11:55:31;;;;;;;7.03;6.30;;;;;;;29.76;46.59;94552.88;5084728;28;20198;-85
2022/08/07 11:58:10;;;;;;;6.65;6.05;;;;;;;29.81;46.95;94548.41;5084602;28;20232;-86
2022/08/07 12:00:48;;;;;;;7.32;6.72;;;;;;;29.33;47.91;94521.38;5083694;28;20220;-87
2022/08/07 12:03:37;;;;;;;9.63;8.63;;;;;;;29.45;48.70;94545.66;5076184;28;20205;-85